Portada
METAR-TAF:

METAR-TAF

Aeroports :

Newberry, Carolina del Sud, Estats Units d'Amèrica

latitud: 34-18-34N, longitud: 081-38-26W, altitud: 174 m

Observació

L'informe es va fer fa 18 minuts, a les 00:15 UTC
Vent 3 kt del Nord-Est
Temperatura 26°C
Humitat 89%
Pressió 1020 hPa
Visibilitat: 16.1 km
Cel clar

METAR: KEOE 080015Z AUTO 05003KT 10SM CLR 26/24 A3011 RMK AO2

Hora: 20:33 (00:33 UTC)


TAF: manca

Observacions i pronòstics meteorològics de més de 4000 aeroports (METAR i TAF).

Les estacions disponibles són els punts grocs i vermells al mapa.

Posi el ratolí al punt desitjat per veure el nom de l'estació.

Feu clic per veure les observacions i els pronòstics meteorològics.

Per canviar el mapa: feu clic els botons verds amb una creu de color negre per apropar; al botó verd amb un guió per allunyar la imatge; o en les fletxes verdes per a mapes adjacents.


METAR-TAF: